createdAt,value
2017-07-15T00:02:09.234Z,76.10
2017-07-15T00:04:44.153Z,75.30
2017-07-15T00:07:19.180Z,75.50
2017-07-15T00:09:54.923Z,76.20
2017-07-15T00:12:29.845Z,76.00
2017-07-15T00:15:11.944Z,76.60
2017-07-15T00:17:46.928Z,76.40
2017-07-15T00:20:21.869Z,76.50
2017-07-15T00:22:57.533Z,77.80
2017-07-15T00:25:32.379Z,77.80
2017-07-15T00:28:07.362Z,77.60
2017-07-15T00:30:42.180Z,77.50
2017-07-15T00:33:17.078Z,77.60
2017-07-15T00:35:52.117Z,77.60
2017-07-15T00:38:26.958Z,77.80
2017-07-15T00:41:02.734Z,78.30
2017-07-15T00:43:37.529Z,78.30
2017-07-15T00:46:12.364Z,78.30
2017-07-15T00:48:47.274Z,78.00
2017-07-15T00:51:22.232Z,78.10
2017-07-15T00:53:57.276Z,77.70
2017-07-15T00:56:32.116Z,76.60
2017-07-15T00:59:07.120Z,75.50
2017-07-15T01:01:42.122Z,76.20
2017-07-15T01:04:20.229Z,76.10
2017-07-15T01:06:55.170Z,76.30
2017-07-15T01:09:30.043Z,76.70
2017-07-15T01:12:04.824Z,76.70
2017-07-15T01:14:39.696Z,77.20
2017-07-15T01:17:14.661Z,77.60
2017-07-15T01:19:50.311Z,77.20
2017-07-15T01:22:25.277Z,77.20
2017-07-15T01:25:00.188Z,77.50
2017-07-15T01:27:35.137Z,77.90
2017-07-15T01:30:09.970Z,78.30
2017-07-15T01:32:44.785Z,77.40
2017-07-15T01:35:19.733Z,78.20
2017-07-15T01:37:54.674Z,78.10
2017-07-15T01:40:29.602Z,77.30
2017-07-15T01:43:04.408Z,77.30
2017-07-15T01:45:39.282Z,77.20
2017-07-15T01:48:14.062Z,76.80
2017-07-15T01:50:49.024Z,77.30
2017-07-15T01:53:24.709Z,77.20
2017-07-15T01:55:59.736Z,77.10
2017-07-15T01:58:34.545Z,76.50
2017-07-15T02:01:09.501Z,77.00
2017-07-15T02:03:44.324Z,77.30
2017-07-15T02:06:19.121Z,77.40
2017-07-15T02:08:54.033Z,77.60
2017-07-15T02:11:29.017Z,77.90
2017-07-15T02:14:03.953Z,78.00
2017-07-15T02:16:38.882Z,78.20
2017-07-15T02:19:13.892Z,78.30
2017-07-15T02:21:48.864Z,78.40
2017-07-15T02:24:23.809Z,77.80
2017-07-15T02:26:58.680Z,77.90
2017-07-15T02:29:33.643Z,77.80
2017-07-15T02:32:08.596Z,78.10
2017-07-15T02:34:43.601Z,77.70
2017-07-15T02:37:18.444Z,77.50
2017-07-15T02:39:54.323Z,77.60
2017-07-15T02:42:29.157Z,77.80
2017-07-15T02:45:04.735Z,77.80
2017-07-15T02:47:39.723Z,77.80
2017-07-15T02:50:14.556Z,77.10
2017-07-15T02:52:49.411Z,77.00
2017-07-15T02:55:25.097Z,77.00
2017-07-15T02:58:00.079Z,77.00
2017-07-15T03:00:34.984Z,76.90
2017-07-15T03:03:10.009Z,76.80
2017-07-15T03:05:44.942Z,76.70
2017-07-15T03:08:19.841Z,76.50
2017-07-15T03:10:54.700Z,76.70
2017-07-15T03:13:29.572Z,77.20
2017-07-15T03:16:04.645Z,77.70
2017-07-15T03:18:39.441Z,78.10
2017-07-15T03:21:15.223Z,79.20
2017-07-15T03:23:50.148Z,78.60
2017-07-15T03:26:42.785Z,78.70
2017-07-15T03:29:17.756Z,78.40
2017-07-15T03:31:52.548Z,78.40
2017-07-15T03:34:27.617Z,78.00
2017-07-15T03:37:02.448Z,77.80
2017-07-15T03:39:37.416Z,77.40
2017-07-15T03:42:12.416Z,77.30
2017-07-15T03:44:47.283Z,76.50
2017-07-15T03:47:22.256Z,76.30
2017-07-15T03:49:57.089Z,76.30
2017-07-15T03:52:32.869Z,76.60
2017-07-15T03:55:07.697Z,76.60
2017-07-15T03:57:42.517Z,77.00
2017-07-15T04:00:17.412Z,76.70
2017-07-15T04:02:52.317Z,77.10
2017-07-15T04:05:27.113Z,77.20
2017-07-15T04:08:01.949Z,76.90
2017-07-15T04:10:37.077Z,77.00
2017-07-15T04:13:11.911Z,76.80
2017-07-15T04:15:46.967Z,76.50
2017-07-15T04:18:22.682Z,76.70
2017-07-15T04:20:57.649Z,76.70
2017-07-15T04:23:32.653Z,77.10
2017-07-15T04:26:07.677Z,76.90
2017-07-15T04:28:42.629Z,77.30
2017-07-15T04:31:17.586Z,76.70
2017-07-15T04:33:53.177Z,76.90
2017-07-15T04:36:28.013Z,76.90
2017-07-15T04:39:02.928Z,77.10
2017-07-15T04:41:37.764Z,77.70
2017-07-15T04:44:12.566Z,78.10
2017-07-15T04:46:47.501Z,77.80
2017-07-15T04:49:22.372Z,77.60
2017-07-15T04:51:57.507Z,77.20
2017-07-15T04:54:32.369Z,76.80
2017-07-15T04:57:07.187Z,76.80
2017-07-15T04:59:42.096Z,76.60
2017-07-15T05:02:17.093Z,77.00
2017-07-15T05:04:51.972Z,76.70
2017-07-15T05:07:26.915Z,76.00
2017-07-15T05:10:01.817Z,76.10
2017-07-15T05:12:36.702Z,75.60
2017-07-15T05:15:11.645Z,75.60
2017-07-15T05:17:46.645Z,75.40
2017-07-15T05:20:21.572Z,75.00
2017-07-15T05:22:56.540Z,74.40
2017-07-15T05:25:31.406Z,74.00
2017-07-15T05:28:06.414Z,74.20
2017-07-15T05:30:41.381Z,72.70
2017-07-15T05:33:16.320Z,72.30
2017-07-15T05:35:51.965Z,72.60
2017-07-15T05:38:26.944Z,71.80
2017-07-15T05:41:02.645Z,70.90
2017-07-15T05:43:37.602Z,70.90
2017-07-15T05:46:12.493Z,72.10
2017-07-15T05:48:47.465Z,70.70
2017-07-15T05:51:22.242Z,70.40
2017-07-15T05:53:57.762Z,70.00
2017-07-15T05:56:32.585Z,70.10
2017-07-15T05:59:08.321Z,68.80
2017-07-15T06:01:43.316Z,68.80
2017-07-15T06:04:18.401Z,69.00
2017-07-15T06:06:53.283Z,69.30
2017-07-15T06:09:28.116Z,67.80
2017-07-15T06:12:03.032Z,69.30
2017-07-15T06:14:37.909Z,67.90
2017-07-15T06:17:12.844Z,65.50
2017-07-15T06:19:47.895Z,65.00
2017-07-15T06:22:22.663Z,64.20
2017-07-15T06:24:58.267Z,65.60
2017-07-15T06:27:33.200Z,65.00
2017-07-15T06:30:08.199Z,65.70
2017-07-15T06:32:43.109Z,65.90
2017-07-15T06:35:18.012Z,62.70
2017-07-15T06:37:53.714Z,62.30
2017-07-15T06:40:29.517Z,63.30
2017-07-15T06:43:04.469Z,63.20
2017-07-15T06:45:39.325Z,62.60
2017-07-15T06:48:20.209Z,60.70
2017-07-15T06:50:57.021Z,60.50
2017-07-15T06:53:32.730Z,60.70
2017-07-15T06:56:07.705Z,60.60
2017-07-15T06:58:42.686Z,61.00
2017-07-15T07:01:17.605Z,60.00
2017-07-15T07:03:52.495Z,58.30
2017-07-15T07:06:27.483Z,57.40
2017-07-15T07:09:02.365Z,57.00
2017-07-15T07:11:37.348Z,56.90
2017-07-15T07:14:12.405Z,55.60
2017-07-15T07:16:47.344Z,55.40
2017-07-15T07:19:22.193Z,56.00
2017-07-15T07:21:57.104Z,55.60
2017-07-15T07:24:35.592Z,54.10
2017-07-15T07:27:11.565Z,53.90
2017-07-15T07:29:46.523Z,53.60
2017-07-15T07:32:21.368Z,53.30
2017-07-15T07:34:57.050Z,50.90
2017-07-15T07:37:32.189Z,50.80
2017-07-15T07:40:07.068Z,51.40
2017-07-15T07:42:41.881Z,49.80
2017-07-15T07:45:17.702Z,50.00
2017-07-15T07:47:52.571Z,48.90
2017-07-15T07:50:27.370Z,49.70
2017-07-15T07:53:02.232Z,48.60
2017-07-15T07:55:40.026Z,48.00
2017-07-15T07:58:15.037Z,47.30
2017-07-15T08:00:49.902Z,46.80
2017-07-15T08:03:24.934Z,47.40
2017-07-15T08:06:00.557Z,48.90
2017-07-15T08:08:35.482Z,48.60
2017-07-15T08:11:10.356Z,48.30
2017-07-15T08:13:45.350Z,49.20
2017-07-15T08:16:20.365Z,48.80
2017-07-15T08:18:55.431Z,50.10
2017-07-15T08:21:30.440Z,49.20
2017-07-15T08:24:05.432Z,49.20
2017-07-15T08:26:40.427Z,47.20
2017-07-15T08:29:15.373Z,49.70
2017-07-15T08:31:50.541Z,47.30
2017-07-15T08:34:25.508Z,47.10
2017-07-15T08:37:00.680Z,45.30
2017-07-15T08:39:35.709Z,45.30
2017-07-15T08:42:17.889Z,43.90
2017-07-15T08:45:00.421Z,44.30
2017-07-15T08:47:39.870Z,41.50
2017-07-15T08:50:15.638Z,44.10
2017-07-15T08:52:53.019Z,42.40
2017-07-15T08:55:28.028Z,43.90
2017-07-15T08:58:03.134Z,40.50
2017-07-15T09:00:38.185Z,40.00
2017-07-15T09:03:13.227Z,39.70
2017-07-15T09:05:48.090Z,39.70
2017-07-15T09:08:26.629Z,40.30
2017-07-15T09:11:02.481Z,38.80
2017-07-15T09:13:37.333Z,38.80
2017-07-15T09:16:26.462Z,38.20
2017-07-15T09:19:12.767Z,38.60
2017-07-15T09:21:51.748Z,39.00
2017-07-15T09:24:26.974Z,39.60
2017-07-15T09:27:01.929Z,39.60
2017-07-15T09:29:36.829Z,39.80
2017-07-15T09:32:12.036Z,39.00
2017-07-15T09:34:55.338Z,39.30
2017-07-15T09:37:30.303Z,38.50
2017-07-15T09:40:05.285Z,39.90
2017-07-15T09:42:40.341Z,38.60
2017-07-15T09:45:15.371Z,39.00
2017-07-15T09:47:50.365Z,37.10
2017-07-15T09:50:25.444Z,38.00
2017-07-15T09:53:00.615Z,37.30
2017-07-15T09:55:36.609Z,38.90
2017-07-15T09:58:11.780Z,39.10
2017-07-15T10:00:48.758Z,37.90
2017-07-15T10:03:24.215Z,38.00
2017-07-15T10:05:59.203Z,37.00
2017-07-15T10:08:35.138Z,39.40
2017-07-15T10:11:10.097Z,39.30
2017-07-15T10:13:45.083Z,39.80
2017-07-15T10:16:19.881Z,39.20
2017-07-15T10:18:54.918Z,39.90
2017-07-15T10:21:29.879Z,39.00
2017-07-15T10:24:04.712Z,39.70
2017-07-15T10:26:40.499Z,39.10
2017-07-15T10:29:15.402Z,38.60
2017-07-15T10:31:55.090Z,37.40
2017-07-15T10:34:30.012Z,37.80
2017-07-15T10:37:04.897Z,37.30
2017-07-15T10:39:39.922Z,36.30
2017-07-15T10:42:20.453Z,37.40
2017-07-15T10:44:55.541Z,36.20
2017-07-15T10:47:30.616Z,34.50
2017-07-15T10:50:05.652Z,33.90
2017-07-15T10:52:40.519Z,35.00
2017-07-15T10:55:15.477Z,36.70
2017-07-15T10:57:50.305Z,36.70
2017-07-15T11:00:25.307Z,38.30
2017-07-15T11:03:08.774Z,37.20
2017-07-15T11:05:43.706Z,37.20
2017-07-15T11:08:18.625Z,36.00
2017-07-15T11:10:53.690Z,35.40
2017-07-15T11:13:28.613Z,37.20
2017-07-15T11:16:03.609Z,36.50
2017-07-15T11:18:38.400Z,33.80
2017-07-15T11:21:13.264Z,30.50
2017-07-15T11:23:48.173Z,31.70
2017-07-15T11:26:23.085Z,33.30
2017-07-15T11:29:02.773Z,35.10
2017-07-15T11:31:37.745Z,34.10
2017-07-15T11:34:12.712Z,35.70
2017-07-15T11:36:47.633Z,34.70
2017-07-15T11:39:24.514Z,34.00
2017-07-15T11:41:59.456Z,32.90
2017-07-15T11:44:34.254Z,32.60
2017-07-15T11:47:09.071Z,33.40
2017-07-15T11:49:44.026Z,32.30
2017-07-15T11:52:19.455Z,32.30
2017-07-15T11:54:54.486Z,32.50
2017-07-15T11:57:29.529Z,34.50
2017-07-15T12:00:04.633Z,35.70
2017-07-15T12:02:39.620Z,35.10
2017-07-15T12:05:14.563Z,35.80
2017-07-15T12:07:49.500Z,36.80
2017-07-15T12:10:25.089Z,32.70
2017-07-15T12:13:00.000Z,32.70
2017-07-15T12:15:34.873Z,33.10
2017-07-15T12:18:09.826Z,33.00
2017-07-15T12:20:44.660Z,34.70
2017-07-15T12:23:20.464Z,34.90
2017-07-15T12:25:55.390Z,34.80
2017-07-15T12:28:30.450Z,34.70
2017-07-15T12:31:05.323Z,34.40
2017-07-15T12:33:40.112Z,35.00
2017-07-15T12:36:15.065Z,35.50
2017-07-15T12:38:53.180Z,35.90
2017-07-15T12:41:28.176Z,37.20
2017-07-15T12:44:03.968Z,34.90
2017-07-15T12:46:38.980Z,34.90
2017-07-15T12:49:13.806Z,34.90
2017-07-15T12:51:48.784Z,35.80
2017-07-15T12:54:23.773Z,35.90
2017-07-15T12:56:58.621Z,34.90
2017-07-15T12:59:33.644Z,34.90
2017-07-15T13:02:08.666Z,36.50
2017-07-15T13:04:43.618Z,35.50
2017-07-15T13:07:18.529Z,36.50
2017-07-15T13:09:53.554Z,37.00
2017-07-15T13:12:28.462Z,36.40
2017-07-15T13:15:03.449Z,37.50
2017-07-15T13:17:38.273Z,37.40
2017-07-15T13:20:13.177Z,37.60
2017-07-15T13:22:48.144Z,37.10
2017-07-15T13:25:23.708Z,35.70
2017-07-15T13:27:58.647Z,35.80
2017-07-15T13:30:33.671Z,36.10
2017-07-15T13:33:08.544Z,36.20
2017-07-15T13:35:43.535Z,37.00
2017-07-15T13:38:19.248Z,36.50
2017-07-15T13:40:54.270Z,36.60
2017-07-15T13:43:29.216Z,36.20
2017-07-15T13:46:04.230Z,35.50
2017-07-15T13:48:39.303Z,36.00
2017-07-15T13:51:14.245Z,36.60
2017-07-15T13:53:49.242Z,36.10
2017-07-15T13:56:24.289Z,35.90
2017-07-15T13:58:59.102Z,36.30
2017-07-15T14:01:34.041Z,36.00
2017-07-15T14:04:08.888Z,36.40
2017-07-15T14:06:43.743Z,37.60
2017-07-15T14:09:19.360Z,37.50
2017-07-15T14:11:54.276Z,37.50
2017-07-15T14:14:29.225Z,38.50
2017-07-15T14:17:07.689Z,37.50
2017-07-15T14:19:42.708Z,37.90
2017-07-15T14:22:17.575Z,38.10
2017-07-15T14:24:52.371Z,37.70
2017-07-15T14:27:27.464Z,38.40
2017-07-15T14:30:02.301Z,37.90
2017-07-15T14:32:37.312Z,37.20
2017-07-15T14:35:12.126Z,38.30
2017-07-15T14:37:47.897Z,37.30
2017-07-15T14:40:23.957Z,36.70
2017-07-15T14:42:58.882Z,37.60
2017-07-15T14:45:41.102Z,37.50
2017-07-15T14:48:16.104Z,37.10
2017-07-15T14:50:51.034Z,37.50
2017-07-15T14:53:26.005Z,37.10
2017-07-15T14:56:00.806Z,37.20
2017-07-15T14:58:35.757Z,36.90
2017-07-15T15:01:10.661Z,36.40
2017-07-15T15:03:45.646Z,37.00
2017-07-15T15:06:20.593Z,35.10
2017-07-15T15:08:55.393Z,34.80
2017-07-15T15:11:30.310Z,34.20
2017-07-15T15:14:05.221Z,34.00
2017-07-15T15:16:40.157Z,33.80
2017-07-15T15:19:15.117Z,34.30
2017-07-15T15:21:50.088Z,34.60
2017-07-15T15:24:25.696Z,35.80
2017-07-15T15:27:00.713Z,35.70
2017-07-15T15:29:35.632Z,35.30
2017-07-15T15:32:10.645Z,36.00
2017-07-15T15:34:45.613Z,36.00
2017-07-15T15:37:20.429Z,36.80
2017-07-15T15:39:57.344Z,36.50
2017-07-15T15:42:32.455Z,37.30
2017-07-15T15:45:08.475Z,37.20
2017-07-15T15:47:43.402Z,38.20
2017-07-15T15:50:18.392Z,38.60
2017-07-15T15:52:53.314Z,39.00
2017-07-15T15:55:28.187Z,38.30
2017-07-15T15:58:03.133Z,39.20
2017-07-15T16:00:38.102Z,38.90
2017-07-15T16:03:13.027Z,39.30
2017-07-15T16:05:47.970Z,39.20
2017-07-15T16:08:22.872Z,39.00
2017-07-15T16:10:57.693Z,40.00
2017-07-15T16:13:32.558Z,39.20
2017-07-15T16:16:07.504Z,40.10
2017-07-15T16:18:42.294Z,39.90
2017-07-15T16:21:17.149Z,40.30
2017-07-15T16:23:52.104Z,39.60
2017-07-15T16:26:26.988Z,40.50
2017-07-15T16:29:02.980Z,40.00
2017-07-15T16:31:46.172Z,40.30
2017-07-15T16:34:21.059Z,39.80
2017-07-15T16:40:03.599Z,39.90
2017-07-15T16:45:49.137Z,39.00
2017-07-15T16:48:24.017Z,39.30
2017-07-15T16:51:00.009Z,40.00
2017-07-15T16:53:36.145Z,39.60
2017-07-15T16:56:10.949Z,39.40
2017-07-15T16:58:51.357Z,40.00
2017-07-15T17:01:32.102Z,40.20
2017-07-15T17:04:12.194Z,40.00
2017-07-15T17:06:47.178Z,39.90
2017-07-15T17:09:23.168Z,40.20
2017-07-15T17:11:58.060Z,40.50
2017-07-15T17:14:38.408Z,41.10
2017-07-15T17:17:14.138Z,41.60
2017-07-15T17:19:50.945Z,41.60
2017-07-15T17:22:28.820Z,41.70
2017-07-15T17:25:03.865Z,42.00
2017-07-15T17:27:38.698Z,41.40
2017-07-15T17:30:13.680Z,42.40
2017-07-15T17:32:49.088Z,42.60
2017-07-15T17:35:23.892Z,42.50
2017-07-15T17:38:04.679Z,43.50
2017-07-15T17:40:39.557Z,42.90
2017-07-15T17:43:15.328Z,43.50
2017-07-15T17:45:51.134Z,43.50
2017-07-15T17:48:26.150Z,44.10
2017-07-15T17:51:00.937Z,44.50
2017-07-15T17:53:39.437Z,44.30
2017-07-15T17:56:16.348Z,44.20
2017-07-15T17:58:51.379Z,44.50
2017-07-15T18:01:26.191Z,44.80
2017-07-15T18:04:01.154Z,44.80
2017-07-15T18:06:36.090Z,45.20
2017-07-15T18:09:11.046Z,45.30
2017-07-15T18:11:46.049Z,45.00
2017-07-15T18:14:21.980Z,44.60
2017-07-15T18:16:56.756Z,45.40
2017-07-15T18:19:32.334Z,46.30
2017-07-15T18:22:07.215Z,47.40
2017-07-15T18:24:42.067Z,47.40
2017-07-15T18:27:16.954Z,48.30
2017-07-15T18:29:52.040Z,47.50
2017-07-15T18:32:27.990Z,48.80
2017-07-15T18:35:04.448Z,49.30
2017-07-15T18:37:39.499Z,50.50
2017-07-15T18:40:19.358Z,51.70
2017-07-15T18:42:54.321Z,52.30
2017-07-15T18:45:29.273Z,52.50
2017-07-15T18:48:05.125Z,53.20
2017-07-15T18:50:40.019Z,53.60
2017-07-15T18:53:15.904Z,53.60
2017-07-15T18:55:50.778Z,54.00
2017-07-15T18:58:26.417Z,54.30
2017-07-15T19:01:01.424Z,54.80
2017-07-15T19:03:42.093Z,55.10
2017-07-15T19:06:17.270Z,55.30
2017-07-15T19:08:52.299Z,55.50
2017-07-15T19:11:27.227Z,55.70
2017-07-15T19:14:02.482Z,56.20
2017-07-15T19:16:42.809Z,56.40
2017-07-15T19:19:17.780Z,56.90
2017-07-15T19:21:54.754Z,57.70
2017-07-15T19:24:31.795Z,58.00
2017-07-15T19:27:06.680Z,57.90
2017-07-15T19:29:44.168Z,58.10
2017-07-15T19:32:20.185Z,58.20
2017-07-15T19:34:55.821Z,59.00
2017-07-15T19:37:37.751Z,58.70
2017-07-15T19:40:13.386Z,59.70
2017-07-15T19:42:49.520Z,59.70
2017-07-15T19:45:24.764Z,60.20
2017-07-15T19:47:59.567Z,60.80
2017-07-15T19:50:34.694Z,61.40
2017-07-15T19:53:11.725Z,62.20
2017-07-15T19:55:47.058Z,62.10
2017-07-15T19:58:22.125Z,61.80
2017-07-15T20:00:58.016Z,62.20
2017-07-15T20:03:34.198Z,62.10
2017-07-15T20:06:09.205Z,62.20
2017-07-15T20:08:44.302Z,62.30
2017-07-15T20:11:19.413Z,62.40
2017-07-15T20:13:54.414Z,62.20
2017-07-15T20:16:29.361Z,62.10
2017-07-15T20:19:08.085Z,62.40
2017-07-15T20:21:46.792Z,63.20
2017-07-15T20:24:21.735Z,63.80
2017-07-15T20:26:56.768Z,64.50
2017-07-15T20:29:31.601Z,64.50
2017-07-15T20:32:10.590Z,64.60
2017-07-15T20:34:46.152Z,64.80
2017-07-15T20:37:25.120Z,64.40
2017-07-15T20:40:00.076Z,64.50
2017-07-15T20:42:39.768Z,65.20
2017-07-15T20:45:14.770Z,66.00
2017-07-15T20:47:49.808Z,66.40
2017-07-15T20:50:24.728Z,66.40
2017-07-15T20:53:13.544Z,66.30
2017-07-15T20:55:48.393Z,66.20
2017-07-15T20:58:24.224Z,65.90
2017-07-15T21:01:04.531Z,66.30
2017-07-15T21:03:39.510Z,66.30
2017-07-15T21:06:14.467Z,66.00
2017-07-15T21:08:49.419Z,65.70
2017-07-15T21:11:24.428Z,65.60
2017-07-15T21:13:59.304Z,65.80
2017-07-15T21:16:34.163Z,65.60
2017-07-15T21:19:09.121Z,65.20
2017-07-15T21:21:44.058Z,65.20
2017-07-15T21:24:18.884Z,65.20
2017-07-15T21:26:57.943Z,65.50
2017-07-15T21:29:34.854Z,65.60
2017-07-15T21:32:09.828Z,65.60
2017-07-15T21:34:44.630Z,65.50
2017-07-15T21:37:20.209Z,65.80
2017-07-15T21:39:55.077Z,65.80
2017-07-15T21:42:35.648Z,65.70
2017-07-15T21:45:11.295Z,65.70
2017-07-15T21:47:47.308Z,66.00
2017-07-15T21:50:22.149Z,66.20
2017-07-15T21:52:57.117Z,66.40
2017-07-15T21:55:31.909Z,66.50
2017-07-15T21:58:06.742Z,66.40
2017-07-15T22:01:09.639Z,66.30
2017-07-15T22:03:44.465Z,66.30
2017-07-15T22:06:20.123Z,66.90
2017-07-15T22:08:55.187Z,67.40
2017-07-15T22:11:30.037Z,67.30
2017-07-15T22:14:05.144Z,67.00
2017-07-15T22:16:40.027Z,66.70
2017-07-15T22:19:15.749Z,66.80
2017-07-15T22:22:05.012Z,67.30
2017-07-15T22:24:39.934Z,67.30
2017-07-15T22:27:14.825Z,67.20
2017-07-15T22:29:49.709Z,66.90
2017-07-15T22:32:24.608Z,66.80
2017-07-15T22:34:59.995Z,66.40
2017-07-15T22:37:34.924Z,66.10
2017-07-15T22:40:09.810Z,66.10
2017-07-15T22:42:44.791Z,66.40
2017-07-15T22:45:19.606Z,66.40
2017-07-15T22:47:54.594Z,66.40
2017-07-15T22:50:29.551Z,66.60
2017-07-15T22:53:04.509Z,66.50
2017-07-15T22:55:39.501Z,66.30
2017-07-15T22:58:19.847Z,66.20
2017-07-15T23:00:55.698Z,66.30
2017-07-15T23:03:31.021Z,66.20
2017-07-15T23:06:09.584Z,66.40
2017-07-15T23:08:45.393Z,66.40
2017-07-15T23:11:22.106Z,66.40
2017-07-15T23:14:00.833Z,66.30
2017-07-15T23:16:35.757Z,66.70
2017-07-15T23:19:12.490Z,67.70
2017-07-15T23:21:48.347Z,67.60
2017-07-15T23:24:26.259Z,67.80
2017-07-15T23:27:01.144Z,67.20
2017-07-15T23:29:36.869Z,67.80
2017-07-15T23:32:12.205Z,68.20
2017-07-15T23:34:50.716Z,67.90
2017-07-15T23:37:25.795Z,68.00
2017-07-15T23:40:00.966Z,68.10
2017-07-15T23:42:39.410Z,68.00
2017-07-15T23:45:15.394Z,67.40
2017-07-15T23:47:52.280Z,67.40
2017-07-15T23:50:27.689Z,67.50
2017-07-15T23:53:02.713Z,67.40
2017-07-15T23:55:37.693Z,67.50
2017-07-15T23:58:12.717Z,67.40
